sensor_id;sensor_type;location;lat;lon;timestamp;pressure;altitude;pressure_sealevel;temperature
67515;BMP280;60646;55.802;37.032;2022-07-23T00:00:54;99735.19;;;21.69
67515;BMP280;60646;55.802;37.032;2022-07-23T00:03:19;99716.78;;;21.60
67515;BMP280;60646;55.802;37.032;2022-07-23T00:05:45;99732.13;;;21.65
67515;BMP280;60646;55.802;37.032;2022-07-23T00:08:11;99733.09;;;21.60
67515;BMP280;60646;55.802;37.032;2022-07-23T00:10:37;99734.53;;;21.61
67515;BMP280;60646;55.802;37.032;2022-07-23T00:13:02;99743.56;;;21.63
67515;BMP280;60646;55.802;37.032;2022-07-23T00:15:28;99736.91;;;21.57
67515;BMP280;60646;55.802;37.032;2022-07-23T00:17:54;99725.91;;;21.55
67515;BMP280;60646;55.802;37.032;2022-07-23T00:20:20;99729.56;;;21.50
67515;BMP280;60646;55.802;37.032;2022-07-23T00:22:50;99741.09;;;21.58
67515;BMP280;60646;55.802;37.032;2022-07-23T00:25:16;99731.75;;;21.51
67515;BMP280;60646;55.802;37.032;2022-07-23T00:27:42;99743.72;;;21.48
67515;BMP280;60646;55.802;37.032;2022-07-23T00:30:08;99737.09;;;21.42
67515;BMP280;60646;55.802;37.032;2022-07-23T00:32:52;99747.34;;;21.51
67515;BMP280;60646;55.802;37.032;2022-07-23T00:35:21;99744.69;;;21.43
67515;BMP280;60646;55.802;37.032;2022-07-23T00:37:48;99741.69;;;21.32
67515;BMP280;60646;55.802;37.032;2022-07-23T00:40:14;99754.66;;;21.41
67515;BMP280;60646;55.802;37.032;2022-07-23T00:42:40;99743.16;;;21.33
67515;BMP280;60646;55.802;37.032;2022-07-23T00:45:06;99750.38;;;21.38
67515;BMP280;60646;55.802;37.032;2022-07-23T00:47:33;99747.13;;;21.32
67515;BMP280;60646;55.802;37.032;2022-07-23T00:49:59;99738.34;;;21.24
67515;BMP280;60646;55.802;37.032;2022-07-23T00:52:25;99759.47;;;21.33
67515;BMP280;60646;55.802;37.032;2022-07-23T00:54:51;99734.97;;;21.16
67515;BMP280;60646;55.802;37.032;2022-07-23T00:57:17;99754.44;;;21.29
67515;BMP280;60646;55.802;37.032;2022-07-23T00:59:43;99742.03;;;21.19
67515;BMP280;60646;55.802;37.032;2022-07-23T01:02:09;99753.75;;;21.21
67515;BMP280;60646;55.802;37.032;2022-07-23T01:04:35;99760.31;;;21.18
67515;BMP280;60646;55.802;37.032;2022-07-23T01:07:01;99742.63;;;21.09
67515;BMP280;60646;55.802;37.032;2022-07-23T01:09:27;99754.16;;;21.18
67515;BMP280;60646;55.802;37.032;2022-07-23T01:11:54;99749.66;;;21.12
67515;BMP280;60646;55.802;37.032;2022-07-23T01:14:20;99750.25;;;21.11
67515;BMP280;60646;55.802;37.032;2022-07-23T01:16:47;99757.81;;;21.12
67515;BMP280;60646;55.802;37.032;2022-07-23T01:19:14;99760.13;;;21.16
67515;BMP280;60646;55.802;37.032;2022-07-23T01:21:43;99744.81;;;21.11
67515;BMP280;60646;55.802;37.032;2022-07-23T01:24:11;99760.72;;;21.15
67515;BMP280;60646;55.802;37.032;2022-07-23T01:26:48;99762.50;;;21.12
67515;BMP280;60646;55.802;37.032;2022-07-23T01:29:14;99754.94;;;21.10
67515;BMP280;60646;55.802;37.032;2022-07-23T01:31:42;99741.97;;;21.01
67515;BMP280;60646;55.802;37.032;2022-07-23T01:34:09;99750.59;;;21.07
67515;BMP280;60646;55.802;37.032;2022-07-23T01:36:36;99739.63;;;20.98
67515;BMP280;60646;55.802;37.032;2022-07-23T01:39:04;99750.25;;;21.03
67515;BMP280;60646;55.802;37.032;2022-07-23T01:41:30;99733.50;;;20.97
67515;BMP280;60646;55.802;37.032;2022-07-23T01:43:56;99736.03;;;20.95
67515;BMP280;60646;55.802;37.032;2022-07-23T01:46:23;99743.41;;;21.02
67515;BMP280;60646;55.802;37.032;2022-07-23T01:48:49;99735.50;;;20.97
67515;BMP280;60646;55.802;37.032;2022-07-23T01:51:34;99740.53;;;21.00
67515;BMP280;60646;55.802;37.032;2022-07-23T01:54:09;99736.03;;;20.95
67515;BMP280;60646;55.802;37.032;2022-07-23T01:56:35;99746.69;;;21.01
67515;BMP280;60646;55.802;37.032;2022-07-23T01:59:01;99744.69;;;21.01
67515;BMP280;60646;55.802;37.032;2022-07-23T02:01:27;99742.59;;;20.92
67515;BMP280;60646;55.802;37.032;2022-07-23T02:03:53;99730.25;;;20.91
67515;BMP280;60646;55.802;37.032;2022-07-23T02:06:19;99732.22;;;20.98
67515;BMP280;60646;55.802;37.032;2022-07-23T02:08:45;99727.56;;;20.91
67515;BMP280;60646;55.802;37.032;2022-07-23T02:11:10;99739.06;;;20.99
67515;BMP280;60646;55.802;37.032;2022-07-23T02:13:36;99735.81;;;21.01
67515;BMP280;60646;55.802;37.032;2022-07-23T02:16:02;99734.19;;;20.98
67515;BMP280;60646;55.802;37.032;2022-07-23T02:18:28;99740.69;;;21.02
67515;BMP280;60646;55.802;37.032;2022-07-23T02:20:54;99737.66;;;20.98
67515;BMP280;60646;55.802;37.032;2022-07-23T02:23:20;99741.78;;;20.99
67515;BMP280;60646;55.802;37.032;2022-07-23T02:25:45;99748.84;;;21.02
67515;BMP280;60646;55.802;37.032;2022-07-23T02:28:11;99748.84;;;21.02
67515;BMP280;60646;55.802;37.032;2022-07-23T02:30:37;99744.84;;;21.03
67515;BMP280;60646;55.802;37.032;2022-07-23T02:33:03;99751.00;;;21.04
67515;BMP280;60646;55.802;37.032;2022-07-23T02:35:29;99757.34;;;21.06
67515;BMP280;60646;55.802;37.032;2022-07-23T02:37:58;99759.06;;;21.11
67515;BMP280;60646;55.802;37.032;2022-07-23T02:40:25;99743.41;;;21.02
67515;BMP280;60646;55.802;37.032;2022-07-23T02:42:51;99745.16;;;21.07
67515;BMP280;60646;55.802;37.032;2022-07-23T02:45:17;99746.63;;;21.08
67515;BMP280;60646;55.802;37.032;2022-07-23T02:47:43;99746.94;;;21.12
67515;BMP280;60646;55.802;37.032;2022-07-23T02:50:09;99742.56;;;21.17
67515;BMP280;60646;55.802;37.032;2022-07-23T02:52:35;99741.09;;;21.16
67515;BMP280;60646;55.802;37.032;2022-07-23T02:55:01;99748.19;;;21.19
67515;BMP280;60646;55.802;37.032;2022-07-23T02:57:28;99742.16;;;21.21
67515;BMP280;60646;55.802;37.032;2022-07-23T02:59:55;99740.88;;;21.22
67515;BMP280;60646;55.802;37.032;2022-07-23T03:02:21;99749.38;;;21.26
67515;BMP280;60646;55.802;37.032;2022-07-23T03:04:47;99756.56;;;21.31
67515;BMP280;60646;55.802;37.032;2022-07-23T03:07:14;99748.25;;;21.29
67515;BMP280;60646;55.802;37.032;2022-07-23T03:09:40;99750.38;;;21.38
67515;BMP280;60646;55.802;37.032;2022-07-23T03:12:07;99743.47;;;21.37
67515;BMP280;60646;55.802;37.032;2022-07-23T03:14:33;99749.22;;;21.41
67515;BMP280;60646;55.802;37.032;2022-07-23T03:16:59;99740.53;;;21.42
67515;BMP280;60646;55.802;37.032;2022-07-23T03:19:25;99744.13;;;21.45
67515;BMP280;60646;55.802;37.032;2022-07-23T03:21:52;99745.47;;;21.53
67515;BMP280;60646;55.802;37.032;2022-07-23T03:24:17;99743.81;;;21.58
67515;BMP280;60646;55.802;37.032;2022-07-23T03:26:43;99743.97;;;21.60
67515;BMP280;60646;55.802;37.032;2022-07-23T03:29:09;99745.00;;;21.64
67515;BMP280;60646;55.802;37.032;2022-07-23T03:31:36;99748.91;;;21.71
67515;BMP280;60646;55.802;37.032;2022-07-23T03:34:01;99747.63;;;21.72
67515;BMP280;60646;55.802;37.032;2022-07-23T03:36:28;99743.09;;;21.74
67515;BMP280;60646;55.802;37.032;2022-07-23T03:38:55;99750.25;;;21.79
67515;BMP280;60646;55.802;37.032;2022-07-23T03:41:21;99756.94;;;21.86
67515;BMP280;60646;55.802;37.032;2022-07-23T03:43:47;99745.16;;;21.83
67515;BMP280;60646;55.802;37.032;2022-07-23T03:46:12;99746.50;;;21.92
67515;BMP280;60646;55.802;37.032;2022-07-23T03:48:38;99754.16;;;22.03
67515;BMP280;60646;55.802;37.032;2022-07-23T03:51:04;99748.59;;;22.01
67515;BMP280;60646;55.802;37.032;2022-07-23T03:53:30;99746.72;;;22.04
67515;BMP280;60646;55.802;37.032;2022-07-23T03:55:55;99761.53;;;22.10
67515;BMP280;60646;55.802;37.032;2022-07-23T03:58:23;99763.72;;;22.21
67515;BMP280;60646;55.802;37.032;2022-07-23T04:00:49;99740.63;;;22.13
67515;BMP280;60646;55.802;37.032;2022-07-23T04:03:15;99751.75;;;22.24
67515;BMP280;60646;55.802;37.032;2022-07-23T04:05:42;99745.47;;;22.31
67515;BMP280;60646;55.802;37.032;2022-07-23T04:08:11;99763.69;;;22.38
67515;BMP280;60646;55.802;37.032;2022-07-23T04:10:41;99752.25;;;22.40
67515;BMP280;60646;55.802;37.032;2022-07-23T04:13:07;99748.00;;;22.46
67515;BMP280;60646;55.802;37.032;2022-07-23T04:15:33;99742.84;;;22.50
67515;BMP280;60646;55.802;37.032;2022-07-23T04:17:59;99757.22;;;22.60
67515;BMP280;60646;55.802;37.032;2022-07-23T04:20:34;99744.88;;;22.59
67515;BMP280;60646;55.802;37.032;2022-07-23T04:23:02;99742.59;;;22.65
67515;BMP280;60646;55.802;37.032;2022-07-23T04:25:28;99751.53;;;22.75
67515;BMP280;60646;55.802;37.032;2022-07-23T04:27:53;99739.34;;;22.77
67515;BMP280;60646;55.802;37.032;2022-07-23T04:30:19;99750.28;;;22.86
67515;BMP280;60646;55.802;37.032;2022-07-23T04:32:45;99755.59;;;22.94
67515;BMP280;60646;55.802;37.032;2022-07-23T04:35:21;99749.03;;;22.97
67515;BMP280;60646;55.802;37.032;2022-07-23T04:37:50;99761.38;;;23.07
67515;BMP280;60646;55.802;37.032;2022-07-23T04:40:17;99745.91;;;23.10
67515;BMP280;60646;55.802;37.032;2022-07-23T04:42:43;99743.75;;;23.18
67515;BMP280;60646;55.802;37.032;2022-07-23T04:45:09;99758.25;;;23.30
67515;BMP280;60646;55.802;37.032;2022-07-23T04:47:35;99749.06;;;23.35
67515;BMP280;60646;55.802;37.032;2022-07-23T04:50:01;99745.19;;;23.38
67515;BMP280;60646;55.802;37.032;2022-07-23T04:52:28;99758.56;;;23.53
67515;BMP280;60646;55.802;37.032;2022-07-23T04:54:54;99748.06;;;23.59
67515;BMP280;60646;55.802;37.032;2022-07-23T04:57:21;99752.66;;;23.66
67515;BMP280;60646;55.802;37.032;2022-07-23T04:59:47;99754.38;;;23.81
67515;BMP280;60646;55.802;37.032;2022-07-23T05:02:14;99748.47;;;23.84
67515;BMP280;60646;55.802;37.032;2022-07-23T05:04:39;99742.56;;;23.88
67515;BMP280;60646;55.802;37.032;2022-07-23T05:07:06;99750.19;;;23.99
67515;BMP280;60646;55.802;37.032;2022-07-23T05:09:32;99747.19;;;24.04
67515;BMP280;60646;55.802;37.032;2022-07-23T05:11:58;99746.28;;;24.11
67515;BMP280;60646;55.802;37.032;2022-07-23T05:14:25;99752.72;;;24.25
67515;BMP280;60646;55.802;37.032;2022-07-23T05:16:52;99748.06;;;24.37
67515;BMP280;60646;55.802;37.032;2022-07-23T05:19:21;99734.81;;;24.43
67515;BMP280;60646;55.802;37.032;2022-07-23T05:21:47;99728.31;;;24.48
67515;BMP280;60646;55.802;37.032;2022-07-23T05:24:14;99733.88;;;24.60
67515;BMP280;60646;55.802;37.032;2022-07-23T05:26:39;99735.00;;;24.67
67515;BMP280;60646;55.802;37.032;2022-07-23T05:29:06;99734.22;;;24.76
67515;BMP280;60646;55.802;37.032;2022-07-23T05:31:31;99744.19;;;24.92
67515;BMP280;60646;55.802;37.032;2022-07-23T05:33:57;99731.41;;;24.95
67515;BMP280;60646;55.802;37.032;2022-07-23T05:36:24;99741.63;;;25.06
67515;BMP280;60646;55.802;37.032;2022-07-23T05:38:56;99733.53;;;25.17
67515;BMP280;60646;55.802;37.032;2022-07-23T05:41:22;99730.44;;;25.23
67515;BMP280;60646;55.802;37.032;2022-07-23T05:43:48;99727.97;;;25.27
67515;BMP280;60646;55.802;37.032;2022-07-23T05:46:14;99729.31;;;25.37
67515;BMP280;60646;55.802;37.032;2022-07-23T05:48:42;99740.56;;;25.53
67515;BMP280;60646;55.802;37.032;2022-07-23T05:51:22;99730.25;;;25.63
67515;BMP280;60646;55.802;37.032;2022-07-23T05:53:50;99735.03;;;25.74
67515;BMP280;60646;55.802;37.032;2022-07-23T05:56:20;99737.19;;;25.87
67515;BMP280;60646;55.802;37.032;2022-07-23T05:58:46;99743.88;;;25.96
67515;BMP280;60646;55.802;37.032;2022-07-23T06:01:14;99741.88;;;26.08
67515;BMP280;60646;55.802;37.032;2022-07-23T06:03:48;99722.25;;;26.11
67515;BMP280;60646;55.802;37.032;2022-07-23T06:06:14;99726.75;;;26.30
67515;BMP280;60646;55.802;37.032;2022-07-23T06:08:40;99719.34;;;26.32
67515;BMP280;60646;55.802;37.032;2022-07-23T06:11:07;99717.94;;;26.43
67515;BMP280;60646;55.802;37.032;2022-07-23T06:13:33;99720.56;;;26.53
67515;BMP280;60646;55.802;37.032;2022-07-23T06:15:59;99716.22;;;26.61
67515;BMP280;60646;55.802;37.032;2022-07-23T06:18:25;99708.47;;;26.69
67515;BMP280;60646;55.802;37.032;2022-07-23T06:20:52;99723.09;;;26.85
67515;BMP280;60646;55.802;37.032;2022-07-23T06:23:18;99720.59;;;26.89
67515;BMP280;60646;55.802;37.032;2022-07-23T06:25:44;99719.03;;;26.98
67515;BMP280;60646;55.802;37.032;2022-07-23T06:28:09;99717.50;;;27.08
67515;BMP280;60646;55.802;37.032;2022-07-23T06:30:35;99718.22;;;27.09
67515;BMP280;60646;55.802;37.032;2022-07-23T06:33:02;99718.91;;;27.21
67515;BMP280;60646;55.802;37.032;2022-07-23T06:35:28;99702.69;;;27.25
67515;BMP280;60646;55.802;37.032;2022-07-23T06:37:54;99709.91;;;27.32
67515;BMP280;60646;55.802;37.032;2022-07-23T06:40:21;99716.47;;;27.39
67515;BMP280;60646;55.802;37.032;2022-07-23T06:42:46;99709.25;;;27.45
67515;BMP280;60646;55.802;37.032;2022-07-23T06:45:17;99722.41;;;27.60
67515;BMP280;60646;55.802;37.032;2022-07-23T06:47:42;99705.94;;;27.60
67515;BMP280;60646;55.802;37.032;2022-07-23T06:50:09;99710.41;;;27.67
67515;BMP280;60646;55.802;37.032;2022-07-23T06:52:35;99712.25;;;27.76
67515;BMP280;60646;55.802;37.032;2022-07-23T06:55:00;99713.78;;;27.79
67515;BMP280;60646;55.802;37.032;2022-07-23T06:57:26;99722.16;;;27.95
67515;BMP280;60646;55.802;37.032;2022-07-23T06:59:52;99718.81;;;27.96
67515;BMP280;60646;55.802;37.032;2022-07-23T07:02:18;99715.66;;;28.02
67515;BMP280;60646;55.802;37.032;2022-07-23T07:04:44;99715.94;;;28.08
67515;BMP280;60646;55.802;37.032;2022-07-23T07:07:10;99696.13;;;28.09
67515;BMP280;60646;55.802;37.032;2022-07-23T07:09:37;99706.22;;;28.18
67515;BMP280;60646;55.802;37.032;2022-07-23T07:12:03;99716.47;;;28.31
67515;BMP280;60646;55.802;37.032;2022-07-23T07:14:29;99715.38;;;28.37
67515;BMP280;60646;55.802;37.032;2022-07-23T07:16:55;99718.50;;;28.45
67515;BMP280;60646;55.802;37.032;2022-07-23T07:19:21;99716.06;;;28.51
67515;BMP280;60646;55.802;37.032;2022-07-23T07:21:46;99708.41;;;28.49
67515;BMP280;60646;55.802;37.032;2022-07-23T07:24:12;99697.69;;;28.55
67515;BMP280;60646;55.802;37.032;2022-07-23T07:26:38;99714.00;;;28.65
67515;BMP280;60646;55.802;37.032;2022-07-23T07:29:05;99711.72;;;28.75
67515;BMP280;60646;55.802;37.032;2022-07-23T07:31:31;99706.22;;;28.75
67515;BMP280;60646;55.802;37.032;2022-07-23T07:33:57;99714.22;;;28.84
67515;BMP280;60646;55.802;37.032;2022-07-23T07:36:23;99706.97;;;28.91
67515;BMP280;60646;55.802;37.032;2022-07-23T07:38:49;99710.03;;;28.97
67515;BMP280;60646;55.802;37.032;2022-07-23T07:41:15;99713.63;;;29.15
67515;BMP280;60646;55.802;37.032;2022-07-23T07:43:41;99713.34;;;29.24
67515;BMP280;60646;55.802;37.032;2022-07-23T07:46:07;99717.38;;;29.37
67515;BMP280;60646;55.802;37.032;2022-07-23T07:48:37;99717.91;;;29.49
67515;BMP280;60646;55.802;37.032;2022-07-23T07:51:04;99709.22;;;29.55
67515;BMP280;60646;55.802;37.032;2022-07-23T07:53:30;99713.31;;;29.69
67515;BMP280;60646;55.802;37.032;2022-07-23T07:55:55;99708.13;;;29.77
67515;BMP280;60646;55.802;37.032;2022-07-23T07:58:21;99711.41;;;29.89
67515;BMP280;60646;55.802;37.032;2022-07-23T08:00:47;99716.28;;;30.06
67515;BMP280;60646;55.802;37.032;2022-07-23T08:03:13;99709.44;;;30.07
67515;BMP280;60646;55.802;37.032;2022-07-23T08:05:39;99719.78;;;30.24
67515;BMP280;60646;55.802;37.032;2022-07-23T08:08:05;99720.59;;;30.27
67515;BMP280;60646;55.802;37.032;2022-07-23T08:10:31;99718.94;;;30.37
67515;BMP280;60646;55.802;37.032;2022-07-23T08:12:57;99701.63;;;30.35
67515;BMP280;60646;55.802;37.032;2022-07-23T08:15:25;99715.19;;;30.46
67515;BMP280;60646;55.802;37.032;2022-07-23T08:17:51;99707.47;;;30.43
67515;BMP280;60646;55.802;37.032;2022-07-23T08:20:18;99711.75;;;30.46
67515;BMP280;60646;55.802;37.032;2022-07-23T08:25:11;99715.59;;;30.56
67515;BMP280;60646;55.802;37.032;2022-07-23T08:27:37;99705.22;;;30.55
67515;BMP280;60646;55.802;37.032;2022-07-23T08:30:03;99714.50;;;30.64
67515;BMP280;60646;55.802;37.032;2022-07-23T08:32:29;99713.78;;;30.63
67515;BMP280;60646;55.802;37.032;2022-07-23T08:34:55;99703.47;;;30.64
67515;BMP280;60646;55.802;37.032;2022-07-23T08:37:21;99706.47;;;30.70
67515;BMP280;60646;55.802;37.032;2022-07-23T08:39:46;99708.75;;;30.75
67515;BMP280;60646;55.802;37.032;2022-07-23T08:42:13;99702.81;;;30.83
67515;BMP280;60646;55.802;37.032;2022-07-23T08:44:45;99690.28;;;30.80
67515;BMP280;60646;55.802;37.032;2022-07-23T08:47:11;99707.78;;;31.04
67515;BMP280;60646;55.802;37.032;2022-07-23T08:49:38;99701.59;;;30.86
67515;BMP280;60646;55.802;37.032;2022-07-23T08:52:04;99707.41;;;30.94
67515;BMP280;60646;55.802;37.032;2022-07-23T08:54:31;99690.69;;;30.90
67515;BMP280;60646;55.802;37.032;2022-07-23T08:56:57;99697.13;;;30.96
67515;BMP280;60646;55.802;37.032;2022-07-23T08:59:22;99685.06;;;30.88
67515;BMP280;60646;55.802;37.032;2022-07-23T09:01:48;99679.56;;;30.88
67515;BMP280;60646;55.802;37.032;2022-07-23T09:04:14;99686.72;;;30.95
67515;BMP280;60646;55.802;37.032;2022-07-23T09:06:40;99681.06;;;30.91
67515;BMP280;60646;55.802;37.032;2022-07-23T09:09:31;99685.91;;;31.10
67515;BMP280;60646;55.802;37.032;2022-07-23T09:12:03;99692.72;;;31.07
67515;BMP280;60646;55.802;37.032;2022-07-23T09:14:43;99673.38;;;31.07
67515;BMP280;60646;55.802;37.032;2022-07-23T09:17:11;99679.94;;;30.98
67515;BMP280;60646;55.802;37.032;2022-07-23T09:19:37;99671.41;;;30.92
67515;BMP280;60646;55.802;37.032;2022-07-23T09:22:24;99683.88;;;31.10
67515;BMP280;60646;55.802;37.032;2022-07-23T09:25:16;99679.06;;;31.11
67515;BMP280;60646;55.802;37.032;2022-07-23T09:30:11;99673.09;;;30.99
67515;BMP280;60646;55.802;37.032;2022-07-23T09:32:38;99669.06;;;31.02
67515;BMP280;60646;55.802;37.032;2022-07-23T09:35:04;99671.34;;;31.07
67515;BMP280;60646;55.802;37.032;2022-07-23T09:37:30;99666.53;;;31.08
67515;BMP280;60646;55.802;37.032;2022-07-23T09:40:07;99651.53;;;31.13
67515;BMP280;60646;55.802;37.032;2022-07-23T09:42:59;99672.34;;;31.35
67515;BMP280;60646;55.802;37.032;2022-07-23T09:45:25;99670.16;;;31.32
67515;BMP280;60646;55.802;37.032;2022-07-23T09:47:50;99673.00;;;31.34
67515;BMP280;60646;55.802;37.032;2022-07-23T09:50:19;99653.16;;;31.39
67515;BMP280;60646;55.802;37.032;2022-07-23T09:52:47;99664.50;;;31.47
67515;BMP280;60646;55.802;37.032;2022-07-23T09:55:14;99661.75;;;31.47
67515;BMP280;60646;55.802;37.032;2022-07-23T09:57:41;99645.81;;;31.46
67515;BMP280;60646;55.802;37.032;2022-07-23T10:00:08;99668.00;;;31.67
67515;BMP280;60646;55.802;37.032;2022-07-23T10:02:36;99647.97;;;31.69
67515;BMP280;60646;55.802;37.032;2022-07-23T10:05:24;99655.13;;;31.76
67515;BMP280;60646;55.802;37.032;2022-07-23T10:08:17;99645.78;;;31.85
67515;BMP280;60646;55.802;37.032;2022-07-23T10:11:02;99646.53;;;31.88
67515;BMP280;60646;55.802;37.032;2022-07-23T10:13:32;99647.34;;;31.92
67515;BMP280;60646;55.802;37.032;2022-07-23T10:16:18;99642.09;;;32.00
67515;BMP280;60646;55.802;37.032;2022-07-23T10:18:43;99653.50;;;32.10
67515;BMP280;60646;55.802;37.032;2022-07-23T10:21:09;99650.34;;;32.20
67515;BMP280;60646;55.802;37.032;2022-07-23T10:27:04;99641.84;;;32.35
67515;BMP280;60646;55.802;37.032;2022-07-23T10:29:52;99636.56;;;32.43
67515;BMP280;60646;55.802;37.032;2022-07-23T10:32:31;99628.19;;;32.41
67515;BMP280;60646;55.802;37.032;2022-07-23T10:35:10;99628.31;;;32.45
67515;BMP280;60646;55.802;37.032;2022-07-23T10:37:41;99618.47;;;32.40
67515;BMP280;60646;55.802;37.032;2022-07-23T10:40:12;99630.44;;;32.47
67515;BMP280;60646;55.802;37.032;2022-07-23T10:42:38;99625.59;;;32.47
67515;BMP280;60646;55.802;37.032;2022-07-23T10:47:53;99612.28;;;32.42
67515;BMP280;60646;55.802;37.032;2022-07-23T10:55:49;99607.69;;;32.50
67515;BMP280;60646;55.802;37.032;2022-07-23T10:58:21;99604.91;;;32.48
67515;BMP280;60646;55.802;37.032;2022-07-23T11:00:48;99614.72;;;32.53
67515;BMP280;60646;55.802;37.032;2022-07-23T11:03:32;99622.69;;;32.65
67515;BMP280;60646;55.802;37.032;2022-07-23T11:05:58;99600.78;;;32.49
67515;BMP280;60646;55.802;37.032;2022-07-23T11:08:24;99621.97;;;32.64
67515;BMP280;60646;55.802;37.032;2022-07-23T11:13:29;99601.84;;;32.62
67515;BMP280;60646;55.802;37.032;2022-07-23T11:24:17;99610.28;;;32.91
67515;BMP280;60646;55.802;37.032;2022-07-23T11:34:49;99609.53;;;33.14
67515;BMP280;60646;55.802;37.032;2022-07-23T11:40:20;99598.44;;;33.14
67515;BMP280;60646;55.802;37.032;2022-07-23T11:43:03;99598.56;;;33.18
67515;BMP280;60646;55.802;37.032;2022-07-23T11:45:35;99586.06;;;33.17
67515;BMP280;60646;55.802;37.032;2022-07-23T11:48:03;99597.38;;;33.26
67515;BMP280;60646;55.802;37.032;2022-07-23T11:50:28;99584.88;;;33.25
67515;BMP280;60646;55.802;37.032;2022-07-23T11:52:54;99574.50;;;33.25
67515;BMP280;60646;55.802;37.032;2022-07-23T11:55:20;99572.53;;;33.30
67515;BMP280;60646;55.802;37.032;2022-07-23T11:57:47;99585.28;;;33.41
67515;BMP280;60646;55.802;37.032;2022-07-23T12:00:14;99583.28;;;33.43
67515;BMP280;60646;55.802;37.032;2022-07-23T12:02:45;99575.72;;;33.46
67515;BMP280;60646;55.802;37.032;2022-07-23T12:05:13;99579.25;;;33.48
67515;BMP280;60646;55.802;37.032;2022-07-23T12:07:41;99559.53;;;33.36
67515;BMP280;60646;55.802;37.032;2022-07-23T12:10:17;99570.09;;;33.42
67515;BMP280;60646;55.802;37.032;2022-07-23T12:12:49;99572.91;;;33.44
67515;BMP280;60646;55.802;37.032;2022-07-23T12:15:38;99559.41;;;33.30
67515;BMP280;60646;55.802;37.032;2022-07-23T12:18:06;99557.38;;;33.33
67515;BMP280;60646;55.802;37.032;2022-07-23T12:20:41;99557.38;;;33.33
67515;BMP280;60646;55.802;37.032;2022-07-23T12:23:09;99570.63;;;33.36
67515;BMP280;60646;55.802;37.032;2022-07-23T12:25:38;99568.56;;;33.37
67515;BMP280;60646;55.802;37.032;2022-07-23T12:28:06;99551.56;;;33.22
67515;BMP280;60646;55.802;37.032;2022-07-23T12:33:07;99550.03;;;33.15
67515;BMP280;60646;55.802;37.032;2022-07-23T12:38:08;99536.13;;;33.13
67515;BMP280;60646;55.802;37.032;2022-07-23T12:40:58;99546.22;;;33.29
67515;BMP280;60646;55.802;37.032;2022-07-23T12:43:32;99531.91;;;33.10
67515;BMP280;60646;55.802;37.032;2022-07-23T12:48:35;99550.06;;;33.17
67515;BMP280;60646;55.802;37.032;2022-07-23T12:51:16;99550.22;;;33.24
67515;BMP280;60646;55.802;37.032;2022-07-23T12:53:53;99543.78;;;33.15
67515;BMP280;60646;55.802;37.032;2022-07-23T12:56:20;99549.94;;;33.11
67515;BMP280;60646;55.802;37.032;2022-07-23T12:58:51;99530.25;;;33.01
67515;BMP280;60646;55.802;37.032;2022-07-23T13:04:06;99547.78;;;33.10
67515;BMP280;60646;55.802;37.032;2022-07-23T13:06:35;99545.47;;;33.00
67515;BMP280;60646;55.802;37.032;2022-07-23T13:09:04;99523.75;;;32.91
67515;BMP280;60646;55.802;37.032;2022-07-23T13:11:30;99524.41;;;32.89
67515;BMP280;60646;55.802;37.032;2022-07-23T13:13:56;99516.78;;;32.88
67515;BMP280;60646;55.802;37.032;2022-07-23T13:16:22;99518.28;;;32.93
67515;BMP280;60646;55.802;37.032;2022-07-23T13:18:48;99512.03;;;32.92
67515;BMP280;60646;55.802;37.032;2022-07-23T13:21:14;99502.38;;;32.93
67515;BMP280;60646;55.802;37.032;2022-07-23T13:23:41;99508.16;;;33.03
67515;BMP280;60646;55.802;37.032;2022-07-23T13:26:07;99510.34;;;33.07
67515;BMP280;60646;55.802;37.032;2022-07-23T13:28:53;99513.84;;;33.09
67515;BMP280;60646;55.802;37.032;2022-07-23T13:31:19;99518.06;;;33.12
67515;BMP280;60646;55.802;37.032;2022-07-23T13:33:45;99502.75;;;33.07
67515;BMP280;60646;55.802;37.032;2022-07-23T13:36:11;99507.13;;;33.17
67515;BMP280;60646;55.802;37.032;2022-07-23T13:38:37;99510.03;;;33.22
67515;BMP280;60646;55.802;37.032;2022-07-23T13:41:04;99510.13;;;33.27
67515;BMP280;60646;55.802;37.032;2022-07-23T13:43:31;99510.22;;;33.31
67515;BMP280;60646;55.802;37.032;2022-07-23T13:45:56;99503.28;;;33.30
67515;BMP280;60646;55.802;37.032;2022-07-23T13:48:22;99497.13;;;33.33
67515;BMP280;60646;55.802;37.032;2022-07-23T13:50:49;99491.59;;;33.33
67515;BMP280;60646;55.802;37.032;2022-07-23T13:53:17;99506.50;;;33.48
67515;BMP280;60646;55.802;37.032;2022-07-23T13:55:45;99500.91;;;33.46
67515;BMP280;60646;55.802;37.032;2022-07-23T13:58:11;99495.53;;;33.52
67515;BMP280;60646;55.802;37.032;2022-07-23T14:01:01;99485.84;;;33.53
67515;BMP280;60646;55.802;37.032;2022-07-23T14:03:46;99483.00;;;33.51
67515;BMP280;60646;55.802;37.032;2022-07-23T14:06:12;99485.16;;;33.52
67515;BMP280;60646;55.802;37.032;2022-07-23T14:08:37;99481.66;;;33.52
67515;BMP280;60646;55.802;37.032;2022-07-23T14:11:03;99483.00;;;33.51
67515;BMP280;60646;55.802;37.032;2022-07-23T14:13:29;99480.34;;;33.55
67515;BMP280;60646;55.802;37.032;2022-07-23T14:15:54;99472.63;;;33.51
67515;BMP280;60646;55.802;37.032;2022-07-23T14:18:20;99479.06;;;33.60
67515;BMP280;60646;55.802;37.032;2022-07-23T14:20:48;99472.88;;;33.61
67515;BMP280;60646;55.802;37.032;2022-07-23T14:23:14;99462.44;;;33.60
67515;BMP280;60646;55.802;37.032;2022-07-23T14:25:40;99456.78;;;33.56
67515;BMP280;60646;55.802;37.032;2022-07-23T14:28:06;99469.41;;;33.63
67515;BMP280;60646;55.802;37.032;2022-07-23T14:30:34;99468.00;;;33.62
67515;BMP280;60646;55.802;37.032;2022-07-23T14:33:00;99470.84;;;33.64
67515;BMP280;60646;55.802;37.032;2022-07-23T14:35:26;99479.47;;;33.78
67515;BMP280;60646;55.802;37.032;2022-07-23T14:37:52;99473.84;;;33.74
67515;BMP280;60646;55.802;37.032;2022-07-23T14:40:18;99482.22;;;33.78
67515;BMP280;60646;55.802;37.032;2022-07-23T14:42:44;99488.63;;;33.84
67515;BMP280;60646;55.802;37.032;2022-07-23T14:45:10;99474.84;;;33.88
67515;BMP280;60646;55.802;37.032;2022-07-23T14:47:36;99479.78;;;33.92
67515;BMP280;60646;55.802;37.032;2022-07-23T14:50:02;99474.31;;;33.96